sensor_id;sensor_type;location;lat;lon;timestamp;pressure;altitude;pressure_sealevel;temperature;humidity
76378;BME280;65200;49.500;8.654;2024-03-08T00:00:07;100462.34;;;9.35;52.76
76378;BME280;65200;49.500;8.654;2024-03-08T00:02:39;100462.97;;;9.37;51.65
76378;BME280;65200;49.500;8.654;2024-03-08T00:05:08;100465.00;;;8.90;53.46
76378;BME280;65200;49.500;8.654;2024-03-08T00:07:36;100455.69;;;9.31;51.58
76378;BME280;65200;49.500;8.654;2024-03-08T00:10:05;100449.00;;;9.49;51.31
76378;BME280;65200;49.500;8.654;2024-03-08T00:12:32;100458.59;;;9.21;52.52
76378;BME280;65200;49.500;8.654;2024-03-08T00:15:00;100459.94;;;9.17;51.63
76378;BME280;65200;49.500;8.654;2024-03-08T00:17:28;100450.47;;;9.52;51.59
76378;BME280;65200;49.500;8.654;2024-03-08T00:19:56;100457.91;;;9.42;51.57
76378;BME280;65200;49.500;8.654;2024-03-08T00:22:26;100437.69;;;9.25;52.68
76378;BME280;65200;49.500;8.654;2024-03-08T00:24:53;100433.84;;;9.42;51.34
76378;BME280;65200;49.500;8.654;2024-03-08T00:27:21;100442.31;;;9.08;52.34
76378;BME280;65200;49.500;8.654;2024-03-08T00:29:49;100437.75;;;9.54;51.76
76378;BME280;65200;49.500;8.654;2024-03-08T00:32:17;100436.03;;;9.01;53.11
76378;BME280;65200;49.500;8.654;2024-03-08T00:34:44;100436.38;;;9.21;52.80
76378;BME280;65200;49.500;8.654;2024-03-08T00:37:12;100437.69;;;9.25;51.49
76378;BME280;65200;49.500;8.654;2024-03-08T00:39:41;100427.00;;;9.25;51.10
76378;BME280;65200;49.500;8.654;2024-03-08T00:42:08;100425.94;;;9.48;51.75
76378;BME280;65200;49.500;8.654;2024-03-08T00:44:36;100423.13;;;8.82;51.83
76378;BME280;65200;49.500;8.654;2024-03-08T00:47:04;100425.44;;;8.85;51.94
76378;BME280;65200;49.500;8.654;2024-03-08T00:49:32;100416.00;;;9.20;52.00
76378;BME280;65200;49.500;8.654;2024-03-08T00:52:00;100416.44;;;9.09;53.21
76378;BME280;65200;49.500;8.654;2024-03-08T00:54:27;100405.16;;;8.99;51.97
76378;BME280;65200;49.500;8.654;2024-03-08T00:56:58;100406.31;;;8.96;51.94
76378;BME280;65200;49.500;8.654;2024-03-08T00:59:26;100411.34;;;8.99;51.79
76378;BME280;65200;49.500;8.654;2024-03-08T01:01:54;100409.28;;;9.01;51.67
76378;BME280;65200;49.500;8.654;2024-03-08T01:04:22;100398.59;;;8.79;53.48
76378;BME280;65200;49.500;8.654;2024-03-08T01:06:52;100406.69;;;8.71;52.00
76378;BME280;65200;49.500;8.654;2024-03-08T01:09:19;100402.19;;;8.94;51.76
76378;BME280;65200;49.500;8.654;2024-03-08T01:11:48;100403.94;;;9.01;53.03
76378;BME280;65200;49.500;8.654;2024-03-08T01:14:17;100403.66;;;8.74;54.11
76378;BME280;65200;49.500;8.654;2024-03-08T01:16:45;100407.16;;;8.97;52.36
76378;BME280;65200;49.500;8.654;2024-03-08T01:19:12;100396.81;;;9.16;51.14
76378;BME280;65200;49.500;8.654;2024-03-08T01:21:40;100400.13;;;8.51;52.94
76378;BME280;65200;49.500;8.654;2024-03-08T01:24:07;100398.72;;;8.32;53.44
76378;BME280;65200;49.500;8.654;2024-03-08T01:26:35;100399.84;;;8.68;52.39
76378;BME280;65200;49.500;8.654;2024-03-08T01:29:03;100392.28;;;8.72;51.96
76378;BME280;65200;49.500;8.654;2024-03-08T01:31:32;100389.06;;;8.62;52.27
76378;BME280;65200;49.500;8.654;2024-03-08T01:34:00;100391.66;;;8.92;52.41
76378;BME280;65200;49.500;8.654;2024-03-08T01:36:27;100389.28;;;8.52;52.08
76378;BME280;65200;49.500;8.654;2024-03-08T01:38:55;100372.94;;;8.47;54.23
76378;BME280;65200;49.500;8.654;2024-03-08T01:41:22;100376.47;;;8.40;53.11
76378;BME280;65200;49.500;8.654;2024-03-08T01:43:50;100371.81;;;8.42;54.26
76378;BME280;65200;49.500;8.654;2024-03-08T01:46:20;100364.03;;;8.32;54.22
76378;BME280;65200;49.500;8.654;2024-03-08T01:48:50;100364.94;;;8.70;53.23
76378;BME280;65200;49.500;8.654;2024-03-08T01:51:19;100367.19;;;8.58;53.01
76378;BME280;65200;49.500;8.654;2024-03-08T01:53:48;100363.44;;;8.45;51.67
76378;BME280;65200;49.500;8.654;2024-03-08T01:56:16;100368.00;;;8.36;53.94
76378;BME280;65200;49.500;8.654;2024-03-08T01:58:44;100362.47;;;8.38;53.05
76378;BME280;65200;49.500;8.654;2024-03-08T02:01:14;100349.09;;;8.46;53.28
76378;BME280;65200;49.500;8.654;2024-03-08T02:03:42;100354.25;;;8.47;52.41
76378;BME280;65200;49.500;8.654;2024-03-08T02:06:13;100363.25;;;8.15;52.31
76378;BME280;65200;49.500;8.654;2024-03-08T02:08:43;100356.09;;;8.47;52.73
76378;BME280;65200;49.500;8.654;2024-03-08T02:11:11;100351.88;;;8.52;52.60
76378;BME280;65200;49.500;8.654;2024-03-08T02:13:39;100349.09;;;8.07;52.57
76378;BME280;65200;49.500;8.654;2024-03-08T02:16:07;100342.72;;;8.16;53.30
76378;BME280;65200;49.500;8.654;2024-03-08T02:18:36;100344.00;;;8.28;51.81
76378;BME280;65200;49.500;8.654;2024-03-08T02:21:07;100337.97;;;8.34;51.97
76378;BME280;65200;49.500;8.654;2024-03-08T02:23:36;100341.72;;;8.48;51.91
76378;BME280;65200;49.500;8.654;2024-03-08T02:26:03;100343.81;;;8.29;53.48
76378;BME280;65200;49.500;8.654;2024-03-08T02:28:32;100345.34;;;8.55;52.51
76378;BME280;65200;49.500;8.654;2024-03-08T02:31:00;100333.63;;;8.56;52.66
76378;BME280;65200;49.500;8.654;2024-03-08T02:33:28;100339.56;;;8.12;52.21
76378;BME280;65200;49.500;8.654;2024-03-08T02:35:56;100335.34;;;8.18;52.51
76378;BME280;65200;49.500;8.654;2024-03-08T02:38:25;100334.91;;;8.14;52.43
76378;BME280;65200;49.500;8.654;2024-03-08T02:40:53;100335.31;;;7.95;53.12
76378;BME280;65200;49.500;8.654;2024-03-08T02:43:22;100334.75;;;8.08;52.38
76378;BME280;65200;49.500;8.654;2024-03-08T02:45:51;100327.19;;;8.19;52.23
76378;BME280;65200;49.500;8.654;2024-03-08T02:48:19;100317.56;;;8.10;53.02
76378;BME280;65200;49.500;8.654;2024-03-08T02:50:48;100316.38;;;8.13;52.14
76378;BME280;65200;49.500;8.654;2024-03-08T02:53:17;100318.56;;;8.09;52.32
76378;BME280;65200;49.500;8.654;2024-03-08T02:55:47;100323.44;;;8.06;53.73
76378;BME280;65200;49.500;8.654;2024-03-08T02:58:15;100307.84;;;8.17;52.18
76378;BME280;65200;49.500;8.654;2024-03-08T03:00:43;100324.16;;;8.30;51.79
76378;BME280;65200;49.500;8.654;2024-03-08T03:03:11;100322.97;;;7.94;53.84
76378;BME280;65200;49.500;8.654;2024-03-08T03:05:39;100310.22;;;8.12;53.18
76378;BME280;65200;49.500;8.654;2024-03-08T03:08:11;100310.13;;;8.28;52.73
76378;BME280;65200;49.500;8.654;2024-03-08T03:10:39;100307.47;;;8.28;52.72
76378;BME280;65200;49.500;8.654;2024-03-08T03:13:08;100306.66;;;8.20;52.71
76378;BME280;65200;49.500;8.654;2024-03-08T03:15:36;100302.00;;;7.91;52.59
76378;BME280;65200;49.500;8.654;2024-03-08T03:18:05;100304.63;;;8.22;53.29
76378;BME280;65200;49.500;8.654;2024-03-08T03:20:34;100296.25;;;8.02;53.00
76378;BME280;65200;49.500;8.654;2024-03-08T03:23:07;100292.28;;;7.98;52.60
76378;BME280;65200;49.500;8.654;2024-03-08T03:25:35;100297.44;;;7.61;53.71
76378;BME280;65200;49.500;8.654;2024-03-08T03:28:05;100296.09;;;7.65;53.32
76378;BME280;65200;49.500;8.654;2024-03-08T03:30:35;100291.66;;;7.88;52.70
76378;BME280;65200;49.500;8.654;2024-03-08T03:33:04;100296.66;;;7.91;53.63
76378;BME280;65200;49.500;8.654;2024-03-08T03:35:34;100288.13;;;8.18;53.03
76378;BME280;65200;49.500;8.654;2024-03-08T03:38:02;100291.69;;;8.11;53.10
76378;BME280;65200;49.500;8.654;2024-03-08T03:40:33;100286.66;;;8.16;53.53
76378;BME280;65200;49.500;8.654;2024-03-08T03:43:01;100278.28;;;7.96;52.55
76378;BME280;65200;49.500;8.654;2024-03-08T03:45:30;100281.88;;;8.03;52.79
76378;BME280;65200;49.500;8.654;2024-03-08T03:48:08;100289.09;;;8.03;53.63
76378;BME280;65200;49.500;8.654;2024-03-08T03:50:38;100286.09;;;7.98;54.00
76378;BME280;65200;49.500;8.654;2024-03-08T03:53:07;100288.16;;;7.49;54.42
76378;BME280;65200;49.500;8.654;2024-03-08T03:55:37;100275.06;;;8.01;52.03
76378;BME280;65200;49.500;8.654;2024-03-08T03:58:07;100280.94;;;7.96;52.64
76378;BME280;65200;49.500;8.654;2024-03-08T04:00:37;100275.63;;;7.96;52.23
76378;BME280;65200;49.500;8.654;2024-03-08T04:03:07;100283.19;;;7.85;52.88
76378;BME280;65200;49.500;8.654;2024-03-08T04:05:35;100271.13;;;7.89;52.54
76378;BME280;65200;49.500;8.654;2024-03-08T04:08:03;100274.50;;;8.13;53.06
76378;BME280;65200;49.500;8.654;2024-03-08T04:10:31;100277.22;;;8.05;52.50
76378;BME280;65200;49.500;8.654;2024-03-08T04:12:58;100270.78;;;8.22;53.33
76378;BME280;65200;49.500;8.654;2024-03-08T04:15:26;100272.41;;;8.01;52.76
76378;BME280;65200;49.500;8.654;2024-03-08T04:17:53;100274.00;;;7.49;54.95
76378;BME280;65200;49.500;8.654;2024-03-08T04:20:23;100270.53;;;7.79;54.23
76378;BME280;65200;49.500;8.654;2024-03-08T04:22:50;100262.22;;;8.04;53.29
76378;BME280;65200;49.500;8.654;2024-03-08T04:25:18;100268.84;;;8.08;52.55
76378;BME280;65200;49.500;8.654;2024-03-08T04:27:46;100260.47;;;7.89;54.31
76378;BME280;65200;49.500;8.654;2024-03-08T04:30:15;100261.44;;;7.96;53.93
76378;BME280;65200;49.500;8.654;2024-03-08T04:32:43;100257.34;;;7.77;53.53
76378;BME280;65200;49.500;8.654;2024-03-08T04:35:11;100254.06;;;7.29;55.05
76378;BME280;65200;49.500;8.654;2024-03-08T04:37:41;100253.44;;;7.65;54.76
76378;BME280;65200;49.500;8.654;2024-03-08T04:40:09;100252.09;;;7.61;54.02
76378;BME280;65200;49.500;8.654;2024-03-08T04:42:38;100250.56;;;7.36;55.75
76378;BME280;65200;49.500;8.654;2024-03-08T04:45:08;100243.38;;;7.75;54.77
76378;BME280;65200;49.500;8.654;2024-03-08T04:47:37;100247.91;;;7.97;54.28
76378;BME280;65200;49.500;8.654;2024-03-08T04:50:06;100240.31;;;7.86;54.42
76378;BME280;65200;49.500;8.654;2024-03-08T04:52:35;100236.81;;;7.86;54.73
76378;BME280;65200;49.500;8.654;2024-03-08T04:55:05;100242.41;;;7.68;55.13
76378;BME280;65200;49.500;8.654;2024-03-08T04:57:33;100233.88;;;7.42;54.80
76378;BME280;65200;49.500;8.654;2024-03-08T05:00:01;100242.00;;;7.49;54.74
76378;BME280;65200;49.500;8.654;2024-03-08T05:02:34;100233.25;;;7.63;55.04
76378;BME280;65200;49.500;8.654;2024-03-08T05:05:01;100229.50;;;7.11;56.11
76378;BME280;65200;49.500;8.654;2024-03-08T05:07:29;100229.94;;;7.22;55.61
76378;BME280;65200;49.500;8.654;2024-03-08T05:09:56;100228.56;;;7.34;55.74
76378;BME280;65200;49.500;8.654;2024-03-08T05:12:25;100224.97;;;7.58;55.45
76378;BME280;65200;49.500;8.654;2024-03-08T05:14:53;100227.88;;;7.40;55.50
76378;BME280;65200;49.500;8.654;2024-03-08T05:17:21;100233.88;;;7.73;54.86
76378;BME280;65200;49.500;8.654;2024-03-08T05:19:50;100230.19;;;7.51;55.38
76378;BME280;65200;49.500;8.654;2024-03-08T05:22:18;100235.38;;;7.37;55.46
76378;BME280;65200;49.500;8.654;2024-03-08T05:24:46;100229.94;;;7.22;56.15
76378;BME280;65200;49.500;8.654;2024-03-08T05:27:13;100229.63;;;7.25;55.72
76378;BME280;65200;49.500;8.654;2024-03-08T05:29:46;100228.38;;;6.89;57.31
76378;BME280;65200;49.500;8.654;2024-03-08T05:32:14;100230.84;;;7.45;55.02
76378;BME280;65200;49.500;8.654;2024-03-08T05:34:41;100229.19;;;7.44;55.90
76378;BME280;65200;49.500;8.654;2024-03-08T05:37:09;100220.41;;;7.36;56.03
76378;BME280;65200;49.500;8.654;2024-03-08T05:39:37;100221.78;;;7.24;55.45
76378;BME280;65200;49.500;8.654;2024-03-08T05:42:05;100220.09;;;7.61;55.40
76378;BME280;65200;49.500;8.654;2024-03-08T05:44:35;100220.25;;;7.29;55.97
76378;BME280;65200;49.500;8.654;2024-03-08T05:47:04;100214.94;;;7.60;55.47
76378;BME280;65200;49.500;8.654;2024-03-08T05:49:33;100213.81;;;7.54;54.69
76378;BME280;65200;49.500;8.654;2024-03-08T05:52:01;100206.13;;;7.59;54.77
76378;BME280;65200;49.500;8.654;2024-03-08T05:54:28;100211.53;;;7.43;55.42
76378;BME280;65200;49.500;8.654;2024-03-08T05:56:56;100214.38;;;6.95;57.31
76378;BME280;65200;49.500;8.654;2024-03-08T05:59:24;100207.44;;;7.25;55.98
76378;BME280;65200;49.500;8.654;2024-03-08T06:01:51;100214.44;;;7.26;55.63
76378;BME280;65200;49.500;8.654;2024-03-08T06:04:20;100215.63;;;7.23;56.60
76378;BME280;65200;49.500;8.654;2024-03-08T06:06:48;100206.00;;;7.53;55.47
76378;BME280;65200;49.500;8.654;2024-03-08T06:09:18;100206.78;;;7.23;56.74
76378;BME280;65200;49.500;8.654;2024-03-08T06:11:51;100212.63;;;7.18;56.12
76378;BME280;65200;49.500;8.654;2024-03-08T06:14:19;100205.19;;;7.75;54.39
76378;BME280;65200;49.500;8.654;2024-03-08T06:16:47;100206.91;;;7.68;55.15
76378;BME280;65200;49.500;8.654;2024-03-08T06:19:16;100204.00;;;7.77;54.37
76378;BME280;65200;49.500;8.654;2024-03-08T06:21:45;100212.22;;;7.37;56.19
76378;BME280;65200;49.500;8.654;2024-03-08T06:24:13;100199.50;;;7.47;56.14
76378;BME280;65200;49.500;8.654;2024-03-08T06:26:41;100196.84;;;7.47;54.72
76378;BME280;65200;49.500;8.654;2024-03-08T06:29:12;100186.81;;;7.57;54.58
76378;BME280;65200;49.500;8.654;2024-03-08T06:31:41;100192.75;;;7.67;54.67
76378;BME280;65200;49.500;8.654;2024-03-08T06:34:09;100190.19;;;7.51;56.11
76378;BME280;65200;49.500;8.654;2024-03-08T06:36:38;100191.09;;;7.89;55.24
76378;BME280;65200;49.500;8.654;2024-03-08T06:39:07;100194.19;;;7.47;55.73
76378;BME280;65200;49.500;8.654;2024-03-08T06:41:37;100186.00;;;7.49;55.21
76378;BME280;65200;49.500;8.654;2024-03-08T06:44:04;100192.00;;;7.51;55.00
76378;BME280;65200;49.500;8.654;2024-03-08T06:46:34;100190.63;;;7.24;56.04
76378;BME280;65200;49.500;8.654;2024-03-08T06:49:02;100189.78;;;7.62;56.07
76378;BME280;65200;49.500;8.654;2024-03-08T06:51:29;100182.31;;;7.58;55.49
76378;BME280;65200;49.500;8.654;2024-03-08T06:53:57;100171.66;;;7.58;55.60
76378;BME280;65200;49.500;8.654;2024-03-08T06:56:27;100180.97;;;8.67;53.13
76378;BME280;65200;49.500;8.654;2024-03-08T06:58:56;100187.97;;;8.68;52.34
76378;BME280;65200;49.500;8.654;2024-03-08T07:01:23;100191.41;;;9.05;51.67
76378;BME280;65200;49.500;8.654;2024-03-08T07:03:51;100199.59;;;9.04;52.77
76378;BME280;65200;49.500;8.654;2024-03-08T07:06:19;100188.81;;;9.26;50.22
76378;BME280;65200;49.500;8.654;2024-03-08T07:08:47;100196.84;;;8.97;50.11
76378;BME280;65200;49.500;8.654;2024-03-08T07:11:15;100198.72;;;8.60;51.86
76378;BME280;65200;49.500;8.654;2024-03-08T07:13:46;100189.50;;;8.62;51.74
76378;BME280;65200;49.500;8.654;2024-03-08T07:16:14;100194.19;;;8.46;52.82
76378;BME280;65200;49.500;8.654;2024-03-08T07:18:42;100188.09;;;8.37;52.68
76378;BME280;65200;49.500;8.654;2024-03-08T07:21:10;100201.78;;;8.57;52.15
76378;BME280;65200;49.500;8.654;2024-03-08T07:23:38;100184.66;;;8.28;53.38
76378;BME280;65200;49.500;8.654;2024-03-08T07:26:30;100179.03;;;8.23;53.93
76378;BME280;65200;49.500;8.654;2024-03-08T07:28:59;100184.81;;;8.64;52.79
76378;BME280;65200;49.500;8.654;2024-03-08T07:31:27;100182.41;;;8.55;51.69
76378;BME280;65200;49.500;8.654;2024-03-08T07:34:11;100177.03;;;8.40;51.70
76378;BME280;65200;49.500;8.654;2024-03-08T07:36:39;100184.56;;;8.14;53.89
76378;BME280;65200;49.500;8.654;2024-03-08T07:39:06;100184.00;;;8.26;52.77
76378;BME280;65200;49.500;8.654;2024-03-08T07:41:38;100176.00;;;8.26;53.61
76378;BME280;65200;49.500;8.654;2024-03-08T07:44:07;100176.59;;;8.51;51.60
76378;BME280;65200;49.500;8.654;2024-03-08T07:46:35;100157.91;;;8.66;53.14
76378;BME280;65200;49.500;8.654;2024-03-08T07:49:03;100173.47;;;8.48;52.29
76378;BME280;65200;49.500;8.654;2024-03-08T07:51:33;100175.19;;;8.92;52.36
76378;BME280;65200;49.500;8.654;2024-03-08T07:54:01;100167.16;;;9.07;52.52
76378;BME280;65200;49.500;8.654;2024-03-08T07:56:30;100165.47;;;9.35;51.91
76378;BME280;65200;49.500;8.654;2024-03-08T07:58:58;100152.44;;;8.30;52.08
76378;BME280;65200;49.500;8.654;2024-03-08T08:01:27;100147.38;;;8.35;52.90
76378;BME280;65200;49.500;8.654;2024-03-08T08:03:55;100134.81;;;8.73;51.37
76378;BME280;65200;49.500;8.654;2024-03-08T08:06:23;100135.00;;;8.86;52.69
76378;BME280;65200;49.500;8.654;2024-03-08T08:08:51;100131.28;;;9.01;51.14
76378;BME280;65200;49.500;8.654;2024-03-08T08:11:20;100117.47;;;8.69;52.10
76378;BME280;65200;49.500;8.654;2024-03-08T08:13:47;100110.59;;;8.60;52.33
76378;BME280;65200;49.500;8.654;2024-03-08T08:16:15;100117.75;;;8.59;51.07
76378;BME280;65200;49.500;8.654;2024-03-08T08:18:44;100109.09;;;9.51;50.84
76378;BME280;65200;49.500;8.654;2024-03-08T08:21:12;100109.97;;;9.79;49.38
76378;BME280;65200;49.500;8.654;2024-03-08T08:23:40;100113.94;;;9.83;50.15
76378;BME280;65200;49.500;8.654;2024-03-08T08:26:07;100114.41;;;10.35;48.83
76378;BME280;65200;49.500;8.654;2024-03-08T08:28:37;100117.88;;;10.29;48.66
76378;BME280;65200;49.500;8.654;2024-03-08T08:31:07;100124.72;;;10.11;49.28
76378;BME280;65200;49.500;8.654;2024-03-08T08:33:35;100134.81;;;9.73;49.69
76378;BME280;65200;49.500;8.654;2024-03-08T08:36:05;100122.84;;;9.48;49.29
76378;BME280;65200;49.500;8.654;2024-03-08T08:38:33;100136.59;;;9.87;49.04
76378;BME280;65200;49.500;8.654;2024-03-08T08:41:01;100143.69;;;10.64;47.79
76378;BME280;65200;49.500;8.654;2024-03-08T08:43:29;100139.63;;;10.75;48.90
76378;BME280;65200;49.500;8.654;2024-03-08T08:45:57;100135.66;;;10.37;47.68
76378;BME280;65200;49.500;8.654;2024-03-08T08:48:24;100141.22;;;10.14;48.28
76378;BME280;65200;49.500;8.654;2024-03-08T08:50:52;100138.66;;;10.27;48.95
76378;BME280;65200;49.500;8.654;2024-03-08T08:53:21;100129.22;;;9.32;48.35
76378;BME280;65200;49.500;8.654;2024-03-08T08:55:49;100129.97;;;10.04;47.19
76378;BME280;65200;49.500;8.654;2024-03-08T08:58:17;100117.38;;;10.74;46.43
76378;BME280;65200;49.500;8.654;2024-03-08T09:00:45;100111.09;;;10.61;48.33
76378;BME280;65200;49.500;8.654;2024-03-08T09:03:13;100113.66;;;10.20;47.82
76378;BME280;65200;49.500;8.654;2024-03-08T09:05:40;100112.72;;;10.89;47.73
76378;BME280;65200;49.500;8.654;2024-03-08T09:08:11;100102.41;;;10.59;47.34
76378;BME280;65200;49.500;8.654;2024-03-08T09:10:40;100097.16;;;10.78;46.78
76378;BME280;65200;49.500;8.654;2024-03-08T09:13:09;100096.22;;;10.92;47.06
76378;BME280;65200;49.500;8.654;2024-03-08T09:15:49;100089.56;;;9.99;48.79
76378;BME280;65200;49.500;8.654;2024-03-08T09:18:19;100095.38;;;10.24;48.21
76378;BME280;65200;49.500;8.654;2024-03-08T09:20:46;100087.28;;;10.79;46.38
76378;BME280;65200;49.500;8.654;2024-03-08T09:23:14;100081.25;;;11.18;46.01
76378;BME280;65200;49.500;8.654;2024-03-08T09:25:44;100087.09;;;9.98;49.39
76378;BME280;65200;49.500;8.654;2024-03-08T09:28:13;100092.25;;;10.20;48.26
76378;BME280;65200;49.500;8.654;2024-03-08T09:30:43;100078.56;;;11.18;46.50
76378;BME280;65200;49.500;8.654;2024-03-08T09:33:22;100076.94;;;11.17;48.53
76378;BME280;65200;49.500;8.654;2024-03-08T09:35:50;100072.22;;;11.25;47.51
76378;BME280;65200;49.500;8.654;2024-03-08T09:38:17;100072.44;;;10.76;46.87
76378;BME280;65200;49.500;8.654;2024-03-08T09:40:48;100067.22;;;11.09;45.12
76378;BME280;65200;49.500;8.654;2024-03-08T09:43:16;100069.25;;;11.00;46.22
76378;BME280;65200;49.500;8.654;2024-03-08T09:45:48;100067.00;;;11.71;46.31
76378;BME280;65200;49.500;8.654;2024-03-08T09:48:18;100058.94;;;12.10;45.43
76378;BME280;65200;49.500;8.654;2024-03-08T09:50:46;100064.91;;;11.66;44.42
76378;BME280;65200;49.500;8.654;2024-03-08T09:53:14;100045.81;;;11.35;46.75
76378;BME280;65200;49.500;8.654;2024-03-08T09:55:43;100056.00;;;11.53;45.95
76378;BME280;65200;49.500;8.654;2024-03-08T09:58:14;100052.34;;;12.06;43.33
76378;BME280;65200;49.500;8.654;2024-03-08T10:01:03;100046.75;;;11.88;45.95
76378;BME280;65200;49.500;8.654;2024-03-08T10:03:33;100043.44;;;11.86;44.22
76378;BME280;65200;49.500;8.654;2024-03-08T10:06:01;100048.22;;;11.97;44.51
76378;BME280;65200;49.500;8.654;2024-03-08T10:08:29;100039.34;;;12.03;46.12
76378;BME280;65200;49.500;8.654;2024-03-08T10:10:57;100050.94;;;12.80;42.92
76378;BME280;65200;49.500;8.654;2024-03-08T10:13:27;100038.06;;;11.99;42.86
76378;BME280;65200;49.500;8.654;2024-03-08T10:15:55;100036.00;;;12.27;44.58
76378;BME280;65200;49.500;8.654;2024-03-08T10:18:22;100043.38;;;12.58;42.95
76378;BME280;65200;49.500;8.654;2024-03-08T10:21:03;100045.06;;;11.61;44.83
76378;BME280;65200;49.500;8.654;2024-03-08T10:23:31;100034.78;;;11.97;43.28
76378;BME280;65200;49.500;8.654;2024-03-08T10:26:09;100031.66;;;12.96;44.35
76378;BME280;65200;49.500;8.654;2024-03-08T10:28:39;100034.31;;;13.09;43.38
76378;BME280;65200;49.500;8.654;2024-03-08T10:31:06;100022.22;;;12.74;43.82
76378;BME280;65200;49.500;8.654;2024-03-08T10:33:34;100019.59;;;13.18;43.20
76378;BME280;65200;49.500;8.654;2024-03-08T10:36:06;100025.59;;;13.20;43.82
76378;BME280;65200;49.500;8.654;2024-03-08T10:38:36;100012.13;;;13.20;44.00
76378;BME280;65200;49.500;8.654;2024-03-08T10:41:05;100016.69;;;12.56;42.46
76378;BME280;65200;49.500;8.654;2024-03-08T10:43:43;100013.81;;;12.51;41.59
76378;BME280;65200;49.500;8.654;2024-03-08T10:46:21;100019.88;;;12.27;42.74
76378;BME280;65200;49.500;8.654;2024-03-08T10:48:55;100005.47;;;12.72;42.74
76378;BME280;65200;49.500;8.654;2024-03-08T10:51:26;99997.03;;;12.62;41.48
76378;BME280;65200;49.500;8.654;2024-03-08T10:53:57;100009.91;;;12.98;41.36
76378;BME280;65200;49.500;8.654;2024-03-08T10:56:25;100008.91;;;12.92;41.91
76378;BME280;65200;49.500;8.654;2024-03-08T10:58:55;100006.97;;;12.68;41.81
76378;BME280;65200;49.500;8.654;2024-03-08T11:01:23;100003.72;;;12.47;42.94
76378;BME280;65200;49.500;8.654;2024-03-08T11:03:52;100006.44;;;12.91;42.17
76378;BME280;65200;49.500;8.654;2024-03-08T11:06:29;100000.00;;;12.41;44.52
76378;BME280;65200;49.500;8.654;2024-03-08T11:08:58;100000.00;;;12.41;42.89
76378;BME280;65200;49.500;8.654;2024-03-08T11:11:27;99978.56;;;12.15;42.73
76378;BME280;65200;49.500;8.654;2024-03-08T11:14:02;99987.22;;;12.87;43.36
76378;BME280;65200;49.500;8.654;2024-03-08T11:16:40;99984.75;;;12.86;42.38
76378;BME280;65200;49.500;8.654;2024-03-08T11:19:25;99980.13;;;12.55;42.09
76378;BME280;65200;49.500;8.654;2024-03-08T11:21:59;99983.19;;;12.65;43.11
76378;BME280;65200;49.500;8.654;2024-03-08T11:24:27;99972.75;;;12.37;42.11
76378;BME280;65200;49.500;8.654;2024-03-08T11:26:57;99973.66;;;13.44;43.10
76378;BME280;65200;49.500;8.654;2024-03-08T11:29:35;99963.59;;;13.33;41.73
76378;BME280;65200;49.500;8.654;2024-03-08T11:32:10;99967.25;;;13.08;41.31
76378;BME280;65200;49.500;8.654;2024-03-08T11:34:40;99960.47;;;12.99;41.13
76378;BME280;65200;49.500;8.654;2024-03-08T11:37:13;99960.41;;;13.74;41.25
76378;BME280;65200;49.500;8.654;2024-03-08T11:39:47;99953.53;;;13.96;39.46
76378;BME280;65200;49.500;8.654;2024-03-08T11:42:15;99948.06;;;13.85;42.25
76378;BME280;65200;49.500;8.654;2024-03-08T11:44:45;99949.28;;;13.89;40.14
76378;BME280;65200;49.500;8.654;2024-03-08T11:47:14;99942.09;;;14.01;40.99
76378;BME280;65200;49.500;8.654;2024-03-08T11:49:42;99941.59;;;14.10;41.86
76378;BME280;65200;49.500;8.654;2024-03-08T11:52:12;99936.09;;;14.59;40.82
76378;BME280;65200;49.500;8.654;2024-03-08T11:54:41;99922.16;;;14.92;40.88
76378;BME280;65200;49.500;8.654;2024-03-08T11:57:09;99915.94;;;14.62;40.69
76378;BME280;65200;49.500;8.654;2024-03-08T11:59:37;99918.16;;;14.83;39.04
76378;BME280;65200;49.500;8.654;2024-03-08T12:02:06;99916.25;;;15.13;41.01
76378;BME280;65200;49.500;8.654;2024-03-08T12:04:36;99912.28;;;14.38;38.61
76378;BME280;65200;49.500;8.654;2024-03-08T12:07:05;99909.78;;;14.73;38.79
76378;BME280;65200;49.500;8.654;2024-03-08T12:09:38;99904.97;;;13.85;39.21
76378;BME280;65200;49.500;8.654;2024-03-08T12:12:06;99904.28;;;14.79;38.85
76378;BME280;65200;49.500;8.654;2024-03-08T12:14:34;99891.75;;;15.26;39.69
76378;BME280;65200;49.500;8.654;2024-03-08T12:17:03;99888.66;;;15.11;37.94
76378;BME280;65200;49.500;8.654;2024-03-08T12:19:33;99875.75;;;15.66;38.34
76378;BME280;65200;49.500;8.654;2024-03-08T12:22:07;99880.78;;;15.39;38.30
76378;BME280;65200;49.500;8.654;2024-03-08T12:24:36;99878.81;;;14.75;38.77
76378;BME280;65200;49.500;8.654;2024-03-08T12:27:17;99866.78;;;14.89;39.31
76378;BME280;65200;49.500;8.654;2024-03-08T12:29:44;99868.75;;;15.24;37.79
76378;BME280;65200;49.500;8.654;2024-03-08T12:32:13;99865.88;;;14.66;38.09
76378;BME280;65200;49.500;8.654;2024-03-08T12:34:42;99856.97;;;15.59;37.30
76378;BME280;65200;49.500;8.654;2024-03-08T12:37:12;99848.25;;;15.46;39.41
76378;BME280;65200;49.500;8.654;2024-03-08T12:39:40;99849.16;;;16.09;36.69
76378;BME280;65200;49.500;8.654;2024-03-08T12:42:12;99857.63;;;15.32;37.70
76378;BME280;65200;49.500;8.654;2024-03-08T12:44:40;99844.34;;;15.19;37.48
76378;BME280;65200;49.500;8.654;2024-03-08T12:47:09;99842.63;;;15.47;36.70
76378;BME280;65200;49.500;8.654;2024-03-08T12:49:37;99830.16;;;15.35;37.99
76378;BME280;65200;49.500;8.654;2024-03-08T12:52:09;99832.75;;;15.76;37.19
76378;BME280;65200;49.500;8.654;2024-03-08T12:54:38;99826.09;;;16.18;37.62
76378;BME280;65200;49.500;8.654;2024-03-08T12:57:05;99819.53;;;16.14;37.45
76378;BME280;65200;49.500;8.654;2024-03-08T12:59:34;99811.06;;;16.10;37.17
76378;BME280;65200;49.500;8.654;2024-03-08T13:02:01;99803.75;;;15.48;38.42
76378;BME280;65200;49.500;8.654;2024-03-08T13:04:29;99793.28;;;15.52;38.20
76378;BME280;65200;49.500;8.654;2024-03-08T13:06:57;99800.41;;;15.81;37.61